createdAt,value
2019-01-24T00:00:49.791Z,97777.27
2019-01-24T00:03:15.950Z,97769.17
2019-01-24T00:05:42.157Z,97776.88
2019-01-24T00:08:08.324Z,97779.69
2019-01-24T00:10:34.492Z,97779.12
2019-01-24T00:13:00.687Z,97774.75
2019-01-24T00:15:26.852Z,97773.32
2019-01-24T00:17:53.467Z,97772.23
2019-01-24T00:20:19.758Z,97773.87
2019-01-24T00:22:46.032Z,97774.37
2019-01-24T00:25:12.593Z,97763.00
2019-01-24T00:27:38.784Z,97769.21
2019-01-24T00:30:13.005Z,97761.22
2019-01-24T00:32:39.170Z,97760.91
2019-01-24T00:35:06.571Z,97731.92
2019-01-24T00:37:32.728Z,97727.94
2019-01-24T00:39:58.891Z,97729.91
2019-01-24T00:42:25.082Z,97716.19
2019-01-24T00:44:51.237Z,97713.05
2019-01-24T00:47:17.505Z,97700.20
2019-01-24T00:49:43.691Z,97703.09
2019-01-24T00:52:09.853Z,97711.80
2019-01-24T00:54:36.019Z,97708.95
2019-01-24T00:57:02.250Z,97714.58
2019-01-24T00:59:28.503Z,97710.13
2019-01-24T01:01:54.660Z,97713.64
2019-01-24T01:04:20.855Z,97712.33
2019-01-24T01:06:47.020Z,97711.77
2019-01-24T01:09:13.188Z,97716.63
2019-01-24T01:11:39.389Z,97714.61
2019-01-24T01:14:05.701Z,97703.33
2019-01-24T01:16:31.863Z,97696.54
2019-01-24T01:18:58.155Z,97694.84
2019-01-24T01:21:24.316Z,97693.53
2019-01-24T01:23:50.476Z,97693.02
2019-01-24T01:26:16.671Z,97686.31
2019-01-24T01:28:42.931Z,97689.89
2019-01-24T01:31:09.092Z,97684.17
2019-01-24T01:33:35.286Z,97683.61
2019-01-24T01:36:01.552Z,97678.79
2019-01-24T01:38:27.816Z,97673.88
2019-01-24T01:40:54.023Z,97664.40
2019-01-24T01:43:20.193Z,97660.95
2019-01-24T01:45:46.351Z,97650.67
2019-01-24T01:48:12.543Z,97638.53
2019-01-24T01:50:39.247Z,97636.07
2019-01-24T01:53:05.408Z,97629.20
2019-01-24T01:55:31.595Z,97614.74
2019-01-24T01:57:57.758Z,97620.08
2019-01-24T02:00:24.527Z,97626.19
2019-01-24T02:02:50.727Z,97636.95
2019-01-24T02:05:16.901Z,97631.31
2019-01-24T02:07:43.151Z,97635.73
2019-01-24T02:10:15.343Z,97634.88
2019-01-24T02:12:42.308Z,97631.41
2019-01-24T02:15:10.981Z,97630.47
2019-01-24T02:17:37.178Z,97628.80
2019-01-24T02:20:06.949Z,97621.39
2019-01-24T02:22:33.116Z,97624.63
2019-01-24T02:24:59.311Z,97625.98
2019-01-24T02:27:25.471Z,97614.84
2019-01-24T02:29:51.636Z,97616.66
2019-01-24T02:32:17.834Z,97621.48
2019-01-24T02:34:49.650Z,97616.73
2019-01-24T02:37:12.055Z,97597.05
2019-01-24T02:39:38.245Z,97597.36
2019-01-24T02:42:04.409Z,97593.55
2019-01-24T02:44:30.575Z,97598.36
2019-01-24T02:46:56.782Z,97599.95
2019-01-24T02:49:22.951Z,97597.11
2019-01-24T02:51:49.114Z,97599.80
2019-01-24T02:54:15.306Z,97600.75
2019-01-24T02:56:41.467Z,97598.25
2019-01-24T02:59:07.729Z,97590.27
2019-01-24T03:01:34.031Z,97582.83
2019-01-24T03:04:00.190Z,97585.19
2019-01-24T03:06:26.349Z,97576.86
2019-01-24T03:08:52.563Z,97579.02
2019-01-24T03:11:18.718Z,97588.55
2019-01-24T03:13:44.875Z,97591.92
2019-01-24T03:16:11.133Z,97594.20
2019-01-24T03:18:37.684Z,97584.17
2019-01-24T03:21:03.951Z,97586.33
2019-01-24T03:23:30.170Z,97580.69
2019-01-24T03:25:56.366Z,97587.25
2019-01-24T03:28:22.540Z,97574.93
2019-01-24T03:30:48.639Z,97590.95
2019-01-24T03:33:14.822Z,97602.31
2019-01-24T03:35:40.994Z,97599.11
2019-01-24T03:38:07.185Z,97591.04
2019-01-24T03:40:33.343Z,97602.34
2019-01-24T03:42:59.496Z,97596.30
2019-01-24T03:45:25.795Z,97602.06
2019-01-24T03:47:51.958Z,97605.41
2019-01-24T03:50:21.650Z,97598.53
2019-01-24T03:52:48.755Z,97601.51
2019-01-24T03:55:17.818Z,97591.58
2019-01-24T03:57:44.032Z,97591.59
2019-01-24T04:00:13.315Z,97593.28
2019-01-24T04:02:39.594Z,97587.52
2019-01-24T04:05:11.784Z,97585.37
2019-01-24T04:07:34.059Z,97587.38
2019-01-24T04:10:00.238Z,97586.12
2019-01-24T04:12:26.400Z,97578.75
2019-01-24T04:14:52.613Z,97570.11
2019-01-24T04:17:19.844Z,97566.05
2019-01-24T04:19:46.113Z,97568.25
2019-01-24T04:22:12.305Z,97559.61
2019-01-24T04:24:38.473Z,97565.11
2019-01-24T04:27:04.641Z,97560.58
2019-01-24T04:29:30.846Z,97572.10
2019-01-24T04:31:57.017Z,97571.99
2019-01-24T04:34:23.177Z,97576.80
2019-01-24T04:36:49.380Z,97574.78
2019-01-24T04:39:15.548Z,97566.91
2019-01-24T04:41:41.720Z,97567.41
2019-01-24T04:44:07.911Z,97556.13
2019-01-24T04:46:34.076Z,97558.13
2019-01-24T04:49:00.253Z,97549.89
2019-01-24T04:51:26.444Z,97552.08
2019-01-24T04:53:52.608Z,97553.89
2019-01-24T04:56:18.784Z,97550.05
2019-01-24T04:58:44.989Z,97555.16
2019-01-24T05:01:11.249Z,97557.45
2019-01-24T05:03:37.415Z,97557.03
2019-01-24T05:06:03.607Z,97551.50
2019-01-24T05:08:29.771Z,97549.41
2019-01-24T05:10:55.940Z,97552.42
2019-01-24T05:13:22.129Z,97558.94
2019-01-24T05:15:48.410Z,97563.09
2019-01-24T05:18:14.571Z,97560.92
2019-01-24T05:20:40.777Z,97558.45
2019-01-24T05:23:06.935Z,97552.06
2019-01-24T05:25:33.201Z,97556.92
2019-01-24T05:27:59.505Z,97550.08
2019-01-24T05:30:25.764Z,97548.33
2019-01-24T05:32:52.225Z,97558.27
2019-01-24T05:35:18.418Z,97554.78
2019-01-24T05:37:46.493Z,97565.27
2019-01-24T05:40:12.970Z,97559.62
2019-01-24T05:42:39.175Z,97567.70
2019-01-24T05:45:10.977Z,97563.77
2019-01-24T05:47:37.138Z,97575.14
2019-01-24T05:50:06.930Z,97576.56
2019-01-24T05:52:33.196Z,97584.65
2019-01-24T05:54:59.359Z,97577.84
2019-01-24T05:57:25.669Z,97579.50
2019-01-24T05:59:51.822Z,97578.28
2019-01-24T06:02:18.088Z,97578.36
2019-01-24T06:04:44.290Z,97580.27
2019-01-24T06:07:10.445Z,97575.13
2019-01-24T06:09:36.610Z,97571.61
2019-01-24T06:12:02.810Z,97582.94
2019-01-24T06:14:29.075Z,97575.59
2019-01-24T06:16:55.242Z,97590.26
2019-01-24T06:19:21.800Z,97590.33
2019-01-24T06:21:47.966Z,97599.39
2019-01-24T06:24:14.221Z,97603.69
2019-01-24T06:26:40.423Z,97591.79
2019-01-24T06:29:06.585Z,97592.24
2019-01-24T06:31:32.770Z,97593.81
2019-01-24T06:33:59.065Z,97595.55
2019-01-24T06:36:25.232Z,97590.53
2019-01-24T06:38:51.387Z,97592.17
2019-01-24T06:41:17.584Z,97581.48
2019-01-24T06:43:43.861Z,97589.48
2019-01-24T06:46:10.026Z,97596.42
2019-01-24T06:48:36.218Z,97602.06
2019-01-24T06:51:02.398Z,97590.03
2019-01-24T06:53:28.666Z,97582.63
2019-01-24T06:55:54.872Z,97586.98
2019-01-24T06:58:21.038Z,97591.63
2019-01-24T07:00:47.307Z,97588.47
2019-01-24T07:03:13.614Z,97588.67
2019-01-24T07:05:39.803Z,97583.24
2019-01-24T07:08:06.073Z,97584.06
2019-01-24T07:10:32.641Z,97594.50
2019-01-24T07:12:58.762Z,97601.06
2019-01-24T07:15:24.925Z,97604.91
2019-01-24T07:17:51.620Z,97607.53
2019-01-24T07:20:19.590Z,97616.67
2019-01-24T07:22:45.759Z,97620.71
2019-01-24T07:25:15.354Z,97619.82
2019-01-24T07:27:41.517Z,97629.13
2019-01-24T07:30:10.887Z,97624.50
2019-01-24T07:32:37.087Z,97624.67
2019-01-24T07:35:06.855Z,97615.64
2019-01-24T07:37:33.015Z,97624.48
2019-01-24T07:39:59.212Z,97622.15
2019-01-24T07:42:25.379Z,97628.10
2019-01-24T07:44:51.539Z,97630.22
2019-01-24T07:47:17.736Z,97635.24
2019-01-24T07:49:43.908Z,97639.44
2019-01-24T07:52:10.074Z,97634.67
2019-01-24T07:54:36.282Z,97646.66
2019-01-24T07:57:02.544Z,97640.88
2019-01-24T07:59:28.703Z,97639.88
2019-01-24T08:01:54.903Z,97651.07
2019-01-24T08:04:21.074Z,97647.00
2019-01-24T08:06:47.270Z,97654.58
2019-01-24T08:09:13.573Z,97660.06
2019-01-24T08:11:39.743Z,97651.16
2019-01-24T08:14:05.911Z,97661.68
2019-01-24T08:16:32.099Z,97666.53
2019-01-24T08:18:58.270Z,97661.97
2019-01-24T08:21:24.470Z,97664.19
2019-01-24T08:23:50.662Z,97663.20
2019-01-24T08:26:16.920Z,97655.08
2019-01-24T08:28:43.090Z,97650.50
2019-01-24T08:31:09.306Z,97655.64
2019-01-24T08:33:35.567Z,97652.38
2019-01-24T08:36:01.724Z,97653.35
2019-01-24T08:38:28.031Z,97643.30
2019-01-24T08:40:54.307Z,97649.51
2019-01-24T08:43:23.362Z,97646.55
2019-01-24T08:45:49.553Z,97649.02
2019-01-24T08:48:15.706Z,97645.08
2019-01-24T08:50:41.880Z,97651.11
2019-01-24T08:53:08.069Z,97645.78
2019-01-24T08:55:36.337Z,97646.41
2019-01-24T08:58:03.389Z,97647.72
2019-01-24T09:00:29.595Z,97652.51
2019-01-24T09:02:56.264Z,97645.60
2019-01-24T09:05:22.533Z,97656.14
2019-01-24T09:07:48.943Z,97647.61
2019-01-24T09:10:24.928Z,97647.20
2019-01-24T09:12:51.218Z,97653.99
2019-01-24T09:15:17.503Z,97659.97
2019-01-24T09:17:43.637Z,97652.69
2019-01-24T09:20:15.902Z,97654.59
2019-01-24T09:22:42.183Z,97649.80
2019-01-24T09:25:09.339Z,97649.49
2019-01-24T09:27:35.516Z,97641.75
2019-01-24T09:30:03.085Z,97628.45
2019-01-24T09:32:29.235Z,97635.33
2019-01-24T09:34:55.417Z,97633.07
2019-01-24T09:37:21.584Z,97626.72
2019-01-24T09:39:47.862Z,97624.82
2019-01-24T09:42:14.704Z,97626.36
2019-01-24T09:44:40.953Z,97626.75
2019-01-24T09:47:07.112Z,97633.95
2019-01-24T09:49:33.295Z,97625.38
2019-01-24T09:51:59.467Z,97617.43
2019-01-24T09:54:25.976Z,97620.12
2019-01-24T09:56:52.170Z,97622.34
2019-01-24T09:59:18.337Z,97618.79
2019-01-24T10:01:45.594Z,97618.62
2019-01-24T10:04:12.134Z,97621.06
2019-01-24T10:06:38.384Z,97621.15
2019-01-24T10:09:05.738Z,97621.36
2019-01-24T10:11:31.945Z,97618.10
2019-01-24T10:13:58.106Z,97616.12
2019-01-24T10:16:24.382Z,97616.30
2019-01-24T10:18:51.127Z,97607.24
2019-01-24T10:21:17.282Z,97616.41
2019-01-24T10:23:43.596Z,97608.88
2019-01-24T10:26:09.791Z,97604.70
2019-01-24T10:28:35.940Z,97611.97
2019-01-24T10:31:02.197Z,97607.44
2019-01-24T10:33:28.391Z,97611.75
2019-01-24T10:35:54.651Z,97617.64
2019-01-24T10:38:20.804Z,97610.38
2019-01-24T10:40:47.083Z,97608.67
2019-01-24T10:43:13.238Z,97613.31
2019-01-24T10:45:45.768Z,97618.14
2019-01-24T10:48:11.952Z,97610.28
2019-01-24T10:50:38.136Z,97608.50
2019-01-24T10:53:04.428Z,97608.42
2019-01-24T10:55:30.596Z,97607.86
2019-01-24T10:57:58.483Z,97605.64
2019-01-24T11:00:27.643Z,97605.64
2019-01-24T11:02:53.932Z,97610.78
2019-01-24T11:05:20.101Z,97608.64
2019-01-24T11:07:46.982Z,97618.88
2019-01-24T11:10:16.272Z,97616.22
2019-01-24T11:12:42.446Z,97616.50
2019-01-24T11:15:17.020Z,97614.05
2019-01-24T11:17:43.214Z,97616.47
2019-01-24T11:20:12.479Z,97623.60
2019-01-24T11:22:38.637Z,97613.25
2019-01-24T11:25:09.319Z,97623.98
2019-01-24T11:27:35.645Z,97607.79
2019-01-24T11:30:03.899Z,97609.41
2019-01-24T11:32:30.079Z,97606.16
2019-01-24T11:34:56.227Z,97605.56
2019-01-24T11:37:22.385Z,97608.36
2019-01-24T11:39:48.685Z,97613.98
2019-01-24T11:42:14.849Z,97606.57
2019-01-24T11:44:41.039Z,97620.95
2019-01-24T11:47:07.245Z,97621.50
2019-01-24T11:49:33.393Z,97621.11
2019-01-24T11:51:59.552Z,97617.28
2019-01-24T11:54:25.741Z,97616.98
2019-01-24T11:56:51.993Z,97630.92
2019-01-24T11:59:18.156Z,97632.30
2019-01-24T12:01:44.469Z,97633.90
2019-01-24T12:04:10.641Z,97633.87
2019-01-24T12:06:36.810Z,97642.59
2019-01-24T12:09:06.055Z,97646.93
2019-01-24T12:11:32.211Z,97649.91
2019-01-24T12:13:58.395Z,97655.30
2019-01-24T12:16:24.600Z,97654.25
2019-01-24T12:18:50.808Z,97665.24
2019-01-24T12:21:24.428Z,97664.92
2019-01-24T12:23:50.627Z,97664.18
2019-01-24T12:26:16.840Z,97663.16
2019-01-24T12:28:43.113Z,97669.17
2019-01-24T12:31:09.304Z,97666.70
2019-01-24T12:33:35.674Z,97676.52
2019-01-24T12:36:01.817Z,97669.98
2019-01-24T12:38:27.995Z,97670.70
2019-01-24T12:40:54.190Z,97671.59
2019-01-24T12:43:23.241Z,97674.60
2019-01-24T12:45:49.538Z,97671.92
2019-01-24T12:48:15.694Z,97671.59
2019-01-24T12:50:41.864Z,97665.63
2019-01-24T12:53:08.063Z,97669.48
2019-01-24T12:55:34.227Z,97668.64
2019-01-24T12:58:00.391Z,97672.73
2019-01-24T13:00:29.689Z,97669.74
2019-01-24T13:02:55.940Z,97678.43
2019-01-24T13:05:22.213Z,97681.42
2019-01-24T13:07:48.519Z,97684.14
2019-01-24T13:10:17.377Z,97697.67
2019-01-24T13:12:43.659Z,97708.94
2019-01-24T13:15:15.860Z,97713.20
2019-01-24T13:17:42.019Z,97721.52
2019-01-24T13:20:10.876Z,97744.39
2019-01-24T13:22:37.059Z,97740.41
2019-01-24T13:25:09.346Z,97735.03
2019-01-24T13:27:35.563Z,97739.07
2019-01-24T13:30:02.126Z,97751.50
2019-01-24T13:32:28.460Z,97751.73
2019-01-24T13:34:54.628Z,97748.64
2019-01-24T13:37:25.736Z,97747.41
2019-01-24T13:39:48.897Z,97750.86
2019-01-24T13:42:15.161Z,97757.99
2019-01-24T13:44:41.358Z,97763.05
2019-01-24T13:47:07.517Z,97765.91
2019-01-24T13:49:33.776Z,97784.85
2019-01-24T13:52:00.126Z,97792.45
2019-01-24T13:54:26.473Z,97805.20
2019-01-24T13:56:52.673Z,97804.71
2019-01-24T13:59:19.115Z,97795.63
2019-01-24T14:01:45.265Z,97799.04
2019-01-24T14:04:13.230Z,97801.31
2019-01-24T14:06:39.489Z,97802.54
2019-01-24T14:09:07.735Z,97812.73
2019-01-24T14:11:33.896Z,97790.02
2019-01-24T14:14:00.080Z,97818.18
2019-01-24T14:16:26.235Z,97821.97
2019-01-24T14:18:52.398Z,97815.31
2019-01-24T14:21:18.692Z,97825.75
2019-01-24T14:23:44.948Z,97824.75
2019-01-24T14:26:11.103Z,97835.55
2019-01-24T14:28:37.340Z,97842.84
2019-01-24T14:31:03.795Z,97837.90
2019-01-24T14:33:29.948Z,97843.86
2019-01-24T14:35:58.420Z,97832.36
2019-01-24T14:38:24.579Z,97846.73
2019-01-24T14:40:50.748Z,97852.91
2019-01-24T14:43:16.919Z,97845.41
2019-01-24T14:45:43.185Z,97857.84
2019-01-24T14:48:09.454Z,97871.94
2019-01-24T14:50:35.648Z,97878.23
2019-01-24T14:53:01.803Z,97873.97
2019-01-24T14:55:28.062Z,97878.34
2019-01-24T14:57:54.254Z,97880.58
2019-01-24T15:00:32.901Z,97893.81
2019-01-24T15:02:59.088Z,97886.06
2019-01-24T15:05:25.540Z,97890.43
2019-01-24T15:07:51.692Z,97896.86
2019-01-24T15:10:17.878Z,97898.87
2019-01-24T15:12:44.036Z,97900.00
2019-01-24T15:15:14.723Z,97901.75
2019-01-24T15:17:41.007Z,97903.94
2019-01-24T15:20:12.503Z,97908.33
2019-01-24T15:22:39.003Z,97920.76
2019-01-24T15:25:08.489Z,97928.05
2019-01-24T15:27:34.648Z,97932.26
2019-01-24T15:30:00.863Z,97936.45
2019-01-24T15:32:27.144Z,97934.25
2019-01-24T15:34:53.352Z,97949.22
2019-01-24T15:37:19.621Z,97954.85
2019-01-24T15:39:46.044Z,97950.88
2019-01-24T15:42:12.352Z,97958.19
2019-01-24T15:44:38.535Z,97962.41
2019-01-24T15:47:05.528Z,97964.27
2019-01-24T15:49:31.851Z,97957.53
2019-01-24T15:51:58.079Z,97968.62
2019-01-24T15:54:24.262Z,97968.86
2019-01-24T15:56:50.529Z,97974.95
2019-01-24T15:59:16.757Z,97979.64
2019-01-24T16:01:42.965Z,97977.36
2019-01-24T16:04:09.224Z,97995.61
2019-01-24T16:06:35.387Z,98002.50
2019-01-24T16:09:01.578Z,97995.56
2019-01-24T16:11:27.728Z,98010.86
2019-01-24T16:13:53.890Z,98011.89
2019-01-24T16:16:20.079Z,98011.73
2019-01-24T16:18:46.369Z,98018.72
2019-01-24T16:21:12.514Z,98010.13
2019-01-24T16:23:38.699Z,98018.84
2019-01-24T16:26:05.262Z,98030.53
2019-01-24T16:28:31.420Z,98039.70
2019-01-24T16:30:57.782Z,98051.42
2019-01-24T16:33:23.932Z,98050.03
2019-01-24T16:35:50.090Z,98059.63
2019-01-24T16:38:16.278Z,98052.52
2019-01-24T16:40:42.419Z,98058.96
2019-01-24T16:43:08.675Z,98064.41
2019-01-24T16:45:34.871Z,98078.06
2019-01-24T16:48:01.010Z,98076.83
2019-01-24T16:50:27.266Z,98066.44
2019-01-24T16:52:53.452Z,98077.92
2019-01-24T16:55:19.698Z,98083.08
2019-01-24T16:57:46.954Z,98087.69
2019-01-24T17:00:35.263Z,98089.80
2019-01-24T17:03:01.442Z,98087.70
2019-01-24T17:05:27.733Z,98097.05
2019-01-24T17:07:54.026Z,98109.68
2019-01-24T17:10:22.279Z,98120.95
2019-01-24T17:12:48.434Z,98122.84
2019-01-24T17:15:16.926Z,98121.88
2019-01-24T17:17:43.116Z,98135.92
2019-01-24T17:20:15.694Z,98126.45
2019-01-24T17:22:41.979Z,98146.09
2019-01-24T17:25:10.933Z,98145.27
2019-01-24T17:27:37.088Z,98149.66
2019-01-24T17:30:09.657Z,98153.26
2019-01-24T17:32:35.922Z,98160.75
2019-01-24T17:35:03.379Z,98165.41
2019-01-24T17:37:29.675Z,98167.57
2019-01-24T17:39:56.234Z,98177.81
2019-01-24T17:42:22.475Z,98181.12
2019-01-24T17:44:48.730Z,98190.04
2019-01-24T17:47:14.968Z,98203.11
2019-01-24T17:49:41.120Z,98196.77
2019-01-24T17:52:07.412Z,98202.88
2019-01-24T17:54:33.675Z,98212.77
2019-01-24T17:56:59.865Z,98201.72
2019-01-24T17:59:26.048Z,98204.78
2019-01-24T18:01:52.292Z,98218.63
2019-01-24T18:04:21.777Z,98223.30
2019-01-24T18:06:46.530Z,98226.69
2019-01-24T18:09:12.806Z,98240.50
2019-01-24T18:11:39.323Z,98242.59
2019-01-24T18:14:05.630Z,98246.57
2019-01-24T18:16:31.900Z,98251.34
2019-01-24T18:18:58.066Z,98256.59
2019-01-24T18:21:24.265Z,98265.89
2019-01-24T18:23:50.762Z,98261.59
2019-01-24T18:26:17.060Z,98275.70
2019-01-24T18:28:43.264Z,98281.66
2019-01-24T18:31:09.436Z,98273.75
2019-01-24T18:33:35.645Z,98278.68
2019-01-24T18:36:01.932Z,98279.50
2019-01-24T18:38:28.099Z,98282.08
2019-01-24T18:40:54.256Z,98291.53
2019-01-24T18:43:20.440Z,98296.80
2019-01-24T18:45:52.187Z,98304.39
2019-01-24T18:48:18.358Z,98307.56
2019-01-24T18:50:45.262Z,98309.39
2019-01-24T18:53:11.561Z,98314.56
2019-01-24T18:55:37.711Z,98313.03
2019-01-24T18:58:04.396Z,98311.23
2019-01-24T19:00:32.551Z,98310.29
2019-01-24T19:02:58.708Z,98318.61
2019-01-24T19:05:24.894Z,98307.84
2019-01-24T19:07:51.048Z,98322.28
2019-01-24T19:10:17.300Z,98316.82
2019-01-24T19:12:43.593Z,98320.52
2019-01-24T19:15:16.652Z,98321.80
2019-01-24T19:17:43.198Z,98328.73
2019-01-24T19:20:11.290Z,98331.86
2019-01-24T19:22:37.447Z,98330.54
2019-01-24T19:25:07.205Z,98328.91
2019-01-24T19:27:33.387Z,98323.27
2019-01-24T19:29:59.542Z,98323.55
2019-01-24T19:32:25.694Z,98332.28
2019-01-24T19:34:51.886Z,98331.45
2019-01-24T19:37:18.034Z,98337.59
2019-01-24T19:39:44.186Z,98333.80
2019-01-24T19:42:10.379Z,98345.66
2019-01-24T19:44:36.541Z,98352.67
2019-01-24T19:47:02.813Z,98352.13
2019-01-24T19:49:29.001Z,98356.86
2019-01-24T19:51:55.152Z,98356.58
2019-01-24T19:54:21.803Z,98366.71
2019-01-24T19:56:47.987Z,98366.44
2019-01-24T19:59:14.143Z,98361.72
2019-01-24T20:01:40.298Z,98380.44
2019-01-24T20:04:06.486Z,98370.84
2019-01-24T20:06:32.640Z,98371.22
2019-01-24T20:09:00.316Z,98380.39
2019-01-24T20:11:26.845Z,98382.82
2019-01-24T20:13:53.007Z,98397.67
2019-01-24T20:16:19.272Z,98402.64
2019-01-24T20:18:45.619Z,98400.08
2019-01-24T20:21:11.904Z,98399.92
2019-01-24T20:23:38.052Z,98403.09
2019-01-24T20:26:04.335Z,98411.98
2019-01-24T20:28:30.654Z,98422.23
2019-01-24T20:30:57.051Z,98423.80
2019-01-24T20:33:23.363Z,98424.20
2019-01-24T20:35:51.473Z,98419.50
2019-01-24T20:38:17.789Z,98421.34
2019-01-24T20:40:44.085Z,98408.45
2019-01-24T20:43:11.641Z,98417.90
2019-01-24T20:45:38.523Z,98422.54
2019-01-24T20:48:04.714Z,98423.58
2019-01-24T20:50:30.882Z,98432.23
2019-01-24T20:52:57.039Z,98438.29
2019-01-24T20:55:23.432Z,98430.17
2019-01-24T20:57:49.594Z,98433.95
2019-01-24T21:00:21.411Z,98441.88
2019-01-24T21:02:47.601Z,98444.88
2019-01-24T21:05:19.616Z,98444.94
2019-01-24T21:07:45.811Z,98444.48
2019-01-24T21:10:20.999Z,98448.56
2019-01-24T21:12:47.163Z,98461.95
2019-01-24T21:15:15.515Z,98462.31
2019-01-24T21:17:41.806Z,98471.17
2019-01-24T21:20:11.371Z,98458.73
2019-01-24T21:22:37.628Z,98469.43
2019-01-24T21:25:07.619Z,98478.59
2019-01-24T21:27:34.899Z,98478.59
2019-01-24T21:30:01.067Z,98482.80
2019-01-24T21:32:27.366Z,98485.91
2019-01-24T21:34:53.531Z,98480.12
2019-01-24T21:37:20.545Z,98480.15
2019-01-24T21:39:46.726Z,98481.65
2019-01-24T21:42:12.893Z,98484.13
2019-01-24T21:44:39.462Z,98487.75
2019-01-24T21:47:05.630Z,98493.76
2019-01-24T21:49:31.785Z,98498.27
2019-01-24T21:51:57.945Z,98508.45
2019-01-24T21:54:24.244Z,98523.30
2019-01-24T21:56:50.396Z,98525.78
2019-01-24T21:59:16.547Z,98525.14
2019-01-24T22:01:42.731Z,98514.24
2019-01-24T22:04:08.878Z,98516.41
2019-01-24T22:06:35.028Z,98526.27
2019-01-24T22:09:01.306Z,98527.77
2019-01-24T22:11:27.507Z,98525.81
2019-01-24T22:13:53.972Z,98525.49
2019-01-24T22:16:20.267Z,98523.37
2019-01-24T22:18:46.411Z,98533.38
2019-01-24T22:21:12.575Z,98529.66
2019-01-24T22:23:38.775Z,98531.42
2019-01-24T22:26:05.131Z,98530.52
2019-01-24T22:28:31.296Z,98532.03
2019-01-24T22:30:58.280Z,98537.26
2019-01-24T22:33:24.434Z,98538.54
2019-01-24T22:35:50.601Z,98536.52
2019-01-24T22:38:16.805Z,98540.38
2019-01-24T22:40:42.964Z,98532.52
2019-01-24T22:43:09.134Z,98536.80
2019-01-24T22:45:35.339Z,98533.85
2019-01-24T22:48:01.502Z,98536.53
2019-01-24T22:50:27.671Z,98537.38
2019-01-24T22:52:53.861Z,98544.94
2019-01-24T22:55:20.022Z,98551.00
2019-01-24T22:57:46.179Z,98548.95
2019-01-24T23:00:49.381Z,98549.28
2019-01-24T23:03:22.027Z,98553.41
2019-01-24T23:05:48.289Z,98565.20
2019-01-24T23:08:14.485Z,98565.96
2019-01-24T23:10:40.642Z,98578.02
2019-01-24T23:13:06.798Z,98582.30
2019-01-24T23:15:33.098Z,98581.38
2019-01-24T23:17:59.361Z,98581.44
2019-01-24T23:20:25.520Z,98590.57
2019-01-24T23:22:51.928Z,98595.55
2019-01-24T23:25:18.088Z,98592.07
2019-01-24T23:27:45.143Z,98583.97
2019-01-24T23:30:11.954Z,98590.87
2019-01-24T23:32:38.109Z,98591.73
2019-01-24T23:35:05.464Z,98594.47
2019-01-24T23:37:31.662Z,98590.03
2019-01-24T23:39:57.864Z,98599.77
2019-01-24T23:42:24.024Z,98602.75
2019-01-24T23:44:50.201Z,98594.92
2019-01-24T23:47:16.360Z,98584.84
2019-01-24T23:49:42.521Z,98569.30
2019-01-24T23:52:08.813Z,98569.00
2019-01-24T23:54:35.072Z,98574.81
2019-01-24T23:57:01.238Z,98572.52
2019-01-24T23:59:28.934Z,98570.73
